createdAt,value
2023-06-12T00:00:19.375Z,3.30
2023-06-12T00:01:36.909Z,3.20
2023-06-12T00:02:38.460Z,3.50
2023-06-12T00:03:46.113Z,3.70
2023-06-12T00:04:47.979Z,3.40
2023-06-12T00:05:50.116Z,4.60
2023-06-12T00:06:51.771Z,3.10
2023-06-12T00:07:56.661Z,3.10
2023-06-12T00:08:58.788Z,3.60
2023-06-12T00:10:00.401Z,3.70
2023-06-12T00:11:07.692Z,3.40
2023-06-12T00:12:09.523Z,3.00
2023-06-12T00:13:12.422Z,3.60
2023-06-12T00:14:13.893Z,3.40
2023-06-12T00:15:15.482Z,3.00
2023-06-12T00:16:17.306Z,3.30
2023-06-12T00:17:18.867Z,3.30
2023-06-12T00:18:20.304Z,3.10
2023-06-12T00:19:22.484Z,3.20
2023-06-12T00:20:24.098Z,3.40
2023-06-12T00:21:25.738Z,3.50
2023-06-12T00:22:27.196Z,3.30
2023-06-12T00:23:29.333Z,3.30
2023-06-12T00:24:30.783Z,3.50
2023-06-12T00:25:33.580Z,3.60
2023-06-12T00:26:35.811Z,3.30
2023-06-12T00:27:37.247Z,3.30
2023-06-12T00:28:38.843Z,3.30
2023-06-12T00:29:40.402Z,3.20
2023-06-12T00:30:41.943Z,3.50
2023-06-12T00:31:43.529Z,3.20
2023-06-12T00:32:45.578Z,3.10
2023-06-12T00:33:48.468Z,3.50
2023-06-12T00:34:50.279Z,3.50
2023-06-12T00:35:52.189Z,3.50
2023-06-12T00:36:53.723Z,3.90
2023-06-12T00:37:55.624Z,3.10
2023-06-12T00:38:57.156Z,3.70
2023-06-12T00:39:58.716Z,3.50
2023-06-12T00:41:00.236Z,3.30
2023-06-12T00:42:01.679Z,3.90
2023-06-12T00:43:03.530Z,3.30
2023-06-12T00:44:04.933Z,3.10
2023-06-12T00:45:07.127Z,3.70
2023-06-12T00:46:09.526Z,3.70
2023-06-12T00:47:11.566Z,3.60
2023-06-12T00:48:13.674Z,3.40
2023-06-12T00:49:15.293Z,4.00
2023-06-12T00:50:18.557Z,3.20
2023-06-12T00:51:21.073Z,3.90
2023-06-12T00:52:26.497Z,3.50
2023-06-12T00:53:27.992Z,3.30
2023-06-12T00:54:30.409Z,3.30
2023-06-12T00:55:32.463Z,3.80
2023-06-12T00:56:33.923Z,4.00
2023-06-12T00:57:37.315Z,3.30
2023-06-12T00:58:40.056Z,3.60
2023-06-12T00:59:42.176Z,3.80
2023-06-12T01:00:43.910Z,3.50
2023-06-12T01:01:45.474Z,3.20
2023-06-12T01:02:54.037Z,3.80
2023-06-12T01:03:58.386Z,3.30
2023-06-12T01:05:00.247Z,3.70
2023-06-12T01:06:05.734Z,3.90
2023-06-12T01:07:14.466Z,3.40
2023-06-12T01:08:35.047Z,3.50
2023-06-12T01:10:04.043Z,3.30
2023-06-12T01:11:11.376Z,3.20
2023-06-12T01:12:13.616Z,3.50
2023-06-12T01:13:17.984Z,3.40
2023-06-12T01:14:21.289Z,3.50
2023-06-12T01:15:23.062Z,3.30
2023-06-12T01:16:24.516Z,3.40
2023-06-12T01:17:27.815Z,3.50
2023-06-12T01:18:30.253Z,3.90
2023-06-12T01:19:32.857Z,3.60
2023-06-12T01:20:35.460Z,3.50
2023-06-12T01:21:41.764Z,3.70
2023-06-12T01:23:01.360Z,3.60
2023-06-12T01:24:42.970Z,3.60
2023-06-12T01:26:04.032Z,3.50
2023-06-12T01:28:41.485Z,3.80
2023-06-12T01:30:13.734Z,3.70
2023-06-12T01:32:55.794Z,3.40
2023-06-12T01:34:07.579Z,3.80
2023-06-12T01:35:17.124Z,3.50
2023-06-12T01:36:23.940Z,4.40
2023-06-12T01:37:50.100Z,3.30
2023-06-12T01:39:00.051Z,3.70
2023-06-12T01:40:06.257Z,4.20
2023-06-12T01:41:10.040Z,3.50
2023-06-12T01:42:12.500Z,3.50
2023-06-12T01:43:14.114Z,3.60
2023-06-12T01:44:17.459Z,3.70
2023-06-12T01:45:18.893Z,3.50
2023-06-12T01:46:20.495Z,3.60
2023-06-12T01:47:22.909Z,3.90
2023-06-12T01:48:25.004Z,4.30
2023-06-12T01:49:27.111Z,3.60
2023-06-12T01:50:28.692Z,3.80
2023-06-12T01:51:30.941Z,3.80
2023-06-12T01:52:33.351Z,3.50
2023-06-12T01:53:37.101Z,4.10
2023-06-12T01:54:39.389Z,3.80
2023-06-12T01:55:41.794Z,3.60
2023-06-12T01:56:43.741Z,3.80
2023-06-12T01:57:45.612Z,4.20
2023-06-12T01:58:50.457Z,3.60
2023-06-12T02:00:21.361Z,3.60
2023-06-12T02:01:24.339Z,3.80
2023-06-12T02:02:26.680Z,3.70
2023-06-12T02:03:29.558Z,3.60
2023-06-12T02:04:31.345Z,3.60
2023-06-12T02:05:37.527Z,3.60
2023-06-12T02:06:38.956Z,4.10
2023-06-12T02:07:40.602Z,3.80
2023-06-12T02:08:42.887Z,3.80
2023-06-12T02:09:47.577Z,3.70
2023-06-12T02:10:50.663Z,3.70
2023-06-12T02:11:52.237Z,3.60
2023-06-12T02:12:53.806Z,3.70
2023-06-12T02:13:55.508Z,3.90
2023-06-12T02:14:57.615Z,4.00
2023-06-12T02:15:59.245Z,3.80
2023-06-12T02:17:04.498Z,3.70
2023-06-12T02:18:07.302Z,4.20
2023-06-12T02:19:08.850Z,3.70
2023-06-12T02:20:11.203Z,4.00
2023-06-12T02:21:15.125Z,3.70
2023-06-12T02:22:17.035Z,3.70
2023-06-12T02:23:18.562Z,3.90
2023-06-12T02:24:21.379Z,4.00
2023-06-12T02:25:22.996Z,3.60
2023-06-12T02:26:25.160Z,4.00
2023-06-12T02:27:26.812Z,3.80
2023-06-12T02:28:28.399Z,4.30
2023-06-12T02:29:30.020Z,4.10
2023-06-12T02:30:31.810Z,3.70
2023-06-12T02:31:34.081Z,3.60
2023-06-12T02:32:35.893Z,4.50
2023-06-12T02:33:40.538Z,3.70
2023-06-12T02:34:42.053Z,7.00
2023-06-12T02:35:43.727Z,4.80
2023-06-12T02:36:47.285Z,4.20
2023-06-12T02:37:53.685Z,4.00
2023-06-12T02:38:56.139Z,3.60
2023-06-12T02:39:57.751Z,3.70
2023-06-12T02:41:00.555Z,4.10
2023-06-12T02:42:02.345Z,3.90
2023-06-12T02:43:05.268Z,3.90
2023-06-12T02:44:07.172Z,4.10
2023-06-12T02:45:09.323Z,4.10
2023-06-12T02:46:10.862Z,4.20
2023-06-12T02:47:12.423Z,3.80
2023-06-12T02:48:14.780Z,3.90
2023-06-12T02:49:16.921Z,4.40
2023-06-12T02:50:18.572Z,4.70
2023-06-12T02:51:28.228Z,3.90
2023-06-12T02:52:30.243Z,4.40
2023-06-12T02:53:32.103Z,4.30
2023-06-12T02:54:33.678Z,4.30
2023-06-12T02:55:40.325Z,4.00
2023-06-12T02:56:45.330Z,4.20
2023-06-12T02:57:47.067Z,4.20
2023-06-12T02:58:48.736Z,4.50
2023-06-12T02:59:50.562Z,4.40
2023-06-12T03:01:00.158Z,4.50
2023-06-12T03:02:01.995Z,4.20
2023-06-12T03:03:29.623Z,4.30
2023-06-12T03:04:33.393Z,4.40
2023-06-12T03:05:36.565Z,4.20
2023-06-12T03:06:38.773Z,4.60
2023-06-12T03:07:40.710Z,4.20
2023-06-12T03:08:45.178Z,4.30
2023-06-12T03:09:47.167Z,3.90
2023-06-12T03:10:49.261Z,4.40
2023-06-12T03:11:52.475Z,4.30
2023-06-12T03:12:54.059Z,3.90
2023-06-12T03:13:55.523Z,4.00
2023-06-12T03:14:58.520Z,4.50
2023-06-12T03:16:00.700Z,4.50
2023-06-12T03:17:02.793Z,4.10
2023-06-12T03:18:04.648Z,4.50
2023-06-12T03:19:06.782Z,4.40
2023-06-12T03:20:09.541Z,4.50
2023-06-12T03:21:11.769Z,6.00
2023-06-12T03:22:13.406Z,5.70
2023-06-12T03:23:16.019Z,7.30
2023-06-12T03:24:17.623Z,6.10
2023-06-12T03:25:19.545Z,6.60
2023-06-12T03:26:21.089Z,5.50
2023-06-12T03:27:23.154Z,4.70
2023-06-12T03:28:24.681Z,4.60
2023-06-12T03:29:26.200Z,4.70
2023-06-12T03:30:27.678Z,4.30
2023-06-12T03:31:29.599Z,4.20
2023-06-12T03:32:32.573Z,4.50
2023-06-12T03:33:36.468Z,4.50
2023-06-12T03:34:39.715Z,4.60
2023-06-12T03:35:41.510Z,4.50
2023-06-12T03:36:44.404Z,4.90
2023-06-12T03:37:47.619Z,3.90
2023-06-12T03:38:50.316Z,4.50
2023-06-12T03:39:52.287Z,4.50
2023-06-12T03:40:54.133Z,4.00
2023-06-12T03:41:57.220Z,4.20
2023-06-12T03:43:04.431Z,4.50
2023-06-12T03:44:06.137Z,3.90
2023-06-12T03:45:10.736Z,4.10
2023-06-12T03:46:12.554Z,4.40
2023-06-12T03:47:14.580Z,4.50
2023-06-12T03:48:16.924Z,4.10
2023-06-12T03:49:18.808Z,4.50
2023-06-12T03:50:22.642Z,4.20
2023-06-12T03:51:24.447Z,4.00
2023-06-12T03:52:28.473Z,4.10
2023-06-12T03:53:30.250Z,4.20
2023-06-12T03:54:31.905Z,3.80
2023-06-12T03:55:34.757Z,3.90
2023-06-12T03:56:36.402Z,4.60
2023-06-12T03:57:38.121Z,4.60
2023-06-12T03:58:39.705Z,4.40
2023-06-12T03:59:41.157Z,4.60
2023-06-12T04:00:48.040Z,4.00
2023-06-12T04:01:49.986Z,4.10
2023-06-12T04:02:54.108Z,4.00
2023-06-12T04:03:56.882Z,4.30
2023-06-12T04:04:58.376Z,3.80
2023-06-12T04:05:59.840Z,4.40
2023-06-12T04:07:01.387Z,4.20
2023-06-12T04:08:03.133Z,4.70
2023-06-12T04:09:05.840Z,4.20
2023-06-12T04:10:11.347Z,4.10
2023-06-12T04:11:15.434Z,3.90
2023-06-12T04:12:17.027Z,3.80
2023-06-12T04:13:18.529Z,4.00
2023-06-12T04:14:20.674Z,4.00
2023-06-12T04:15:22.966Z,4.40
2023-06-12T04:16:24.947Z,4.00
2023-06-12T04:17:26.507Z,4.10
2023-06-12T04:18:27.936Z,3.80
2023-06-12T04:19:29.663Z,4.30
2023-06-12T04:20:32.626Z,4.00
2023-06-12T04:21:34.271Z,4.20
2023-06-12T04:22:36.338Z,4.30
2023-06-12T04:23:41.568Z,4.50
2023-06-12T04:24:43.779Z,4.00
2023-06-12T04:25:45.645Z,3.70
2023-06-12T04:26:49.051Z,4.00
2023-06-12T04:27:50.637Z,4.30
2023-06-12T04:28:53.583Z,4.40
2023-06-12T04:29:57.762Z,4.50
2023-06-12T04:31:00.494Z,4.10
2023-06-12T04:32:02.264Z,4.20
2023-06-12T04:33:04.007Z,4.40
2023-06-12T04:34:06.658Z,4.80
2023-06-12T04:35:08.867Z,4.30
2023-06-12T04:36:13.957Z,4.40
2023-06-12T04:37:18.837Z,3.90
2023-06-12T04:38:20.765Z,3.70
2023-06-12T04:39:23.986Z,3.80
2023-06-12T04:40:27.962Z,4.00
2023-06-12T04:41:33.389Z,3.50
2023-06-12T04:42:36.559Z,4.00
2023-06-12T04:43:39.014Z,3.70
2023-06-12T04:44:40.530Z,4.00
2023-06-12T04:45:44.757Z,4.40
2023-06-12T04:46:47.318Z,4.10
2023-06-12T04:47:50.489Z,3.80
2023-06-12T04:48:52.368Z,4.10
2023-06-12T04:49:58.303Z,4.10
2023-06-12T04:51:00.390Z,3.90
2023-06-12T04:52:03.518Z,3.80
2023-06-12T04:53:06.784Z,4.30
2023-06-12T04:54:10.078Z,4.20
2023-06-12T04:55:11.650Z,4.20
2023-06-12T04:56:13.435Z,4.20
2023-06-12T04:57:16.662Z,3.90
2023-06-12T04:58:18.432Z,4.00
2023-06-12T04:59:19.898Z,3.60
2023-06-12T05:00:21.525Z,4.10
2023-06-12T05:01:23.621Z,3.50
2023-06-12T05:02:25.367Z,4.20
2023-06-12T05:03:29.193Z,4.30
2023-06-12T05:04:31.224Z,3.90
2023-06-12T05:05:33.663Z,4.10
2023-06-12T05:06:38.171Z,3.60
2023-06-12T05:07:41.891Z,3.50
2023-06-12T05:08:43.603Z,3.50
2023-06-12T05:09:45.246Z,3.40
2023-06-12T05:10:46.758Z,3.60
2023-06-12T05:11:48.285Z,4.00
2023-06-12T05:12:50.415Z,3.60
2023-06-12T05:13:51.873Z,4.20
2023-06-12T05:14:53.668Z,3.70
2023-06-12T05:15:55.606Z,3.60
2023-06-12T05:16:59.298Z,3.80
2023-06-12T05:18:01.781Z,3.90
2023-06-12T05:19:04.039Z,3.40
2023-06-12T05:20:09.467Z,3.20
2023-06-12T05:21:13.913Z,3.90
2023-06-12T05:22:16.565Z,3.90
2023-06-12T05:23:18.340Z,3.70
2023-06-12T05:24:20.894Z,3.70
2023-06-12T05:25:22.902Z,3.50
2023-06-12T05:26:25.734Z,3.60
2023-06-12T05:27:27.249Z,3.30
2023-06-12T05:28:28.653Z,3.40
2023-06-12T05:29:30.132Z,4.30
2023-06-12T05:30:31.727Z,3.90
2023-06-12T05:31:34.539Z,4.10
2023-06-12T05:32:36.794Z,4.50
2023-06-12T05:33:40.043Z,3.60
2023-06-12T05:34:43.420Z,3.80
2023-06-12T05:35:45.228Z,3.50
2023-06-12T05:36:46.949Z,3.80
2023-06-12T05:37:48.628Z,3.10
2023-06-12T05:38:50.302Z,3.50
2023-06-12T05:39:53.436Z,3.60
2023-06-12T05:40:55.097Z,3.50
2023-06-12T05:41:57.362Z,3.50
2023-06-12T05:42:59.862Z,3.00
2023-06-12T05:44:04.080Z,3.20
2023-06-12T05:45:06.508Z,4.00
2023-06-12T05:46:08.044Z,3.50
2023-06-12T05:47:11.235Z,3.50
2023-06-12T05:48:13.141Z,3.60
2023-06-12T05:49:14.671Z,4.00
2023-06-12T05:50:16.565Z,4.10
2023-06-12T05:51:18.189Z,4.40
2023-06-12T05:52:20.133Z,4.80
2023-06-12T05:53:22.108Z,5.70
2023-06-12T05:54:23.763Z,5.00
2023-06-12T05:55:30.372Z,4.00
2023-06-12T05:56:33.075Z,4.20
2023-06-12T05:57:35.100Z,3.90
2023-06-12T05:58:36.822Z,3.60
2023-06-12T05:59:38.301Z,3.20
2023-06-12T06:00:44.045Z,3.30
2023-06-12T06:01:51.445Z,3.10
2023-06-12T06:02:53.868Z,2.80
2023-06-12T06:04:04.614Z,3.50
2023-06-12T06:05:10.172Z,3.30
2023-06-12T06:06:13.528Z,3.90
2023-06-12T06:07:18.592Z,2.80
2023-06-12T06:08:22.302Z,3.70
2023-06-12T06:09:24.140Z,3.70
2023-06-12T06:10:27.071Z,3.40
2023-06-12T06:11:28.869Z,3.30
2023-06-12T06:12:30.687Z,3.80
2023-06-12T06:13:32.884Z,3.80
2023-06-12T06:14:34.859Z,4.00
2023-06-12T06:15:37.015Z,5.30
2023-06-12T06:16:53.289Z,3.40
2023-06-12T06:17:57.252Z,3.40
2023-06-12T06:18:58.850Z,3.30
2023-06-12T06:20:00.433Z,3.50
2023-06-12T06:21:01.926Z,3.00
2023-06-12T06:22:05.477Z,3.50
2023-06-12T06:23:07.305Z,3.20
2023-06-12T06:24:10.463Z,3.40
2023-06-12T06:25:14.075Z,3.10
2023-06-12T06:26:16.213Z,3.50
2023-06-12T06:27:18.562Z,3.50
2023-06-12T06:28:20.790Z,2.80
2023-06-12T06:29:22.686Z,3.40
2023-06-12T06:30:25.437Z,3.00
2023-06-12T06:31:28.485Z,3.00
2023-06-12T06:32:30.524Z,3.30
2023-06-12T06:33:32.818Z,3.10
2023-06-12T06:34:34.401Z,3.10
2023-06-12T06:35:35.825Z,3.40
2023-06-12T06:36:37.774Z,3.20
2023-06-12T06:37:39.350Z,3.20
2023-06-12T06:38:40.983Z,2.90
2023-06-12T06:39:42.575Z,3.30
2023-06-12T06:40:44.403Z,3.80
2023-06-12T06:41:45.999Z,3.90
2023-06-12T06:42:47.991Z,3.30
2023-06-12T06:43:55.369Z,3.10
2023-06-12T06:44:59.220Z,3.60
2023-06-12T06:46:00.955Z,3.00
2023-06-12T06:47:04.263Z,3.00
2023-06-12T06:48:07.919Z,2.70
2023-06-12T06:49:09.587Z,3.60
2023-06-12T06:50:11.719Z,3.00
2023-06-12T06:51:13.852Z,2.90
2023-06-12T06:52:17.680Z,3.20
2023-06-12T06:53:19.363Z,3.10
2023-06-12T06:54:20.983Z,2.90
2023-06-12T06:55:22.784Z,2.80
2023-06-12T06:56:24.507Z,3.00
2023-06-12T06:57:26.465Z,3.00
2023-06-12T06:58:27.964Z,3.00
2023-06-12T06:59:29.587Z,4.70
2023-06-12T07:00:31.103Z,3.50
2023-06-12T07:01:33.902Z,3.30
2023-06-12T07:02:35.627Z,3.40
2023-06-12T07:03:37.640Z,3.70
2023-06-12T07:04:40.606Z,2.90
2023-06-12T07:05:42.331Z,3.00
2023-06-12T07:06:44.585Z,3.20
2023-06-12T07:08:00.365Z,3.00
2023-06-12T07:09:05.106Z,2.70
2023-06-12T07:10:08.075Z,2.60
2023-06-12T07:11:10.304Z,2.70
2023-06-12T07:12:12.534Z,2.70
2023-06-12T07:13:14.459Z,2.80
2023-06-12T07:14:21.641Z,3.00
2023-06-12T07:15:27.348Z,3.00
2023-06-12T07:16:30.471Z,3.50
2023-06-12T07:17:33.690Z,2.60
2023-06-12T07:18:35.308Z,3.00
2023-06-12T07:19:37.531Z,2.90
2023-06-12T07:20:39.205Z,2.90
2023-06-12T07:21:40.888Z,2.70
2023-06-12T07:22:42.420Z,2.80
2023-06-12T07:23:45.439Z,2.90
2023-06-12T07:24:47.810Z,2.50
2023-06-12T07:25:50.672Z,2.60
2023-06-12T07:26:53.102Z,2.80
2023-06-12T07:27:55.396Z,3.00
2023-06-12T07:29:00.577Z,2.40
2023-06-12T07:30:03.281Z,2.80
2023-06-12T07:31:05.152Z,2.90
2023-06-12T07:32:06.987Z,2.70
2023-06-12T07:33:10.259Z,2.90
2023-06-12T07:34:12.210Z,2.70
2023-06-12T07:35:15.316Z,3.00
2023-06-12T07:36:17.115Z,2.70
2023-06-12T07:37:21.379Z,2.40
2023-06-12T07:38:23.598Z,2.20
2023-06-12T07:39:25.784Z,3.10
2023-06-12T07:40:27.673Z,2.80
2023-06-12T07:41:29.337Z,2.80
2023-06-12T07:42:33.540Z,2.50
2023-06-12T07:43:35.201Z,2.60
2023-06-12T07:44:38.134Z,2.70
2023-06-12T07:45:40.112Z,2.90
2023-06-12T07:46:43.034Z,3.00
2023-06-12T07:47:46.233Z,2.80
2023-06-12T07:48:48.093Z,2.90
2023-06-12T07:49:49.764Z,2.40
2023-06-12T07:50:51.254Z,2.30
2023-06-12T07:51:54.159Z,2.60
2023-06-12T07:52:56.464Z,2.70
2023-06-12T07:53:58.171Z,2.50
2023-06-12T07:55:00.756Z,2.30
2023-06-12T07:56:02.729Z,2.40
2023-06-12T07:57:06.759Z,2.40
2023-06-12T07:58:08.658Z,2.90
2023-06-12T07:59:11.652Z,2.20
2023-06-12T08:00:17.226Z,2.50
2023-06-12T08:01:22.950Z,2.80
2023-06-12T08:02:29.421Z,2.40
2023-06-12T08:03:32.322Z,2.40
2023-06-12T08:04:35.941Z,2.50
2023-06-12T08:05:38.253Z,2.50
2023-06-12T08:06:45.443Z,2.30
2023-06-12T08:07:46.986Z,2.40
2023-06-12T08:08:48.575Z,2.30
2023-06-12T08:09:52.018Z,2.30
2023-06-12T08:10:54.327Z,2.20
2023-06-12T08:11:55.990Z,2.50
2023-06-12T08:12:57.468Z,2.50
2023-06-12T08:13:59.131Z,2.50
2023-06-12T08:15:03.176Z,2.20
2023-06-12T08:16:05.208Z,2.30
2023-06-12T08:17:07.605Z,2.50
2023-06-12T08:18:11.523Z,2.40
2023-06-12T08:19:13.410Z,2.20
2023-06-12T08:20:15.907Z,2.20
2023-06-12T08:21:19.106Z,2.30
2023-06-12T08:22:20.738Z,2.50
2023-06-12T08:23:22.690Z,2.60
2023-06-12T08:24:25.798Z,2.30
2023-06-12T08:25:27.577Z,2.70
2023-06-12T08:26:30.798Z,2.50
2023-06-12T08:27:32.503Z,2.50
2023-06-12T08:28:35.870Z,2.70
2023-06-12T08:29:40.093Z,2.70
2023-06-12T08:30:42.039Z,2.70
2023-06-12T08:31:43.710Z,2.60
2023-06-12T08:32:46.809Z,2.70
2023-06-12T08:33:49.972Z,3.00
2023-06-12T08:34:51.623Z,3.00
2023-06-12T08:35:53.409Z,2.80
2023-06-12T08:36:55.156Z,2.70
2023-06-12T08:37:56.998Z,3.00
2023-06-12T08:39:00.908Z,3.00
2023-06-12T08:40:02.861Z,2.70
2023-06-12T08:41:05.748Z,2.60
2023-06-12T08:42:15.336Z,2.90
2023-06-12T08:43:17.078Z,2.60
2023-06-12T08:44:22.259Z,2.50
2023-06-12T08:45:27.010Z,2.80
2023-06-12T08:46:31.139Z,2.70
2023-06-12T08:47:35.615Z,2.80
2023-06-12T08:48:37.269Z,2.50
2023-06-12T08:49:38.807Z,2.50
2023-06-12T08:50:43.144Z,2.90
2023-06-12T08:51:47.371Z,2.50
2023-06-12T08:52:50.425Z,2.60
2023-06-12T08:53:52.609Z,2.60
2023-06-12T08:54:55.377Z,2.60
2023-06-12T08:55:57.857Z,2.50
2023-06-12T08:56:59.989Z,2.60
2023-06-12T08:58:02.464Z,2.70
2023-06-12T08:59:04.165Z,2.80
2023-06-12T09:00:13.086Z,2.60
2023-06-12T09:01:15.279Z,2.70
2023-06-12T09:02:19.028Z,2.60
2023-06-12T09:03:21.315Z,2.60
2023-06-12T09:04:41.996Z,2.40
2023-06-12T09:05:44.443Z,2.70
2023-06-12T09:06:48.236Z,2.50
2023-06-12T09:07:50.644Z,2.60
2023-06-12T09:08:52.602Z,2.90
2023-06-12T09:09:57.574Z,2.30
2023-06-12T09:11:03.711Z,2.90
2023-06-12T09:12:08.602Z,2.90
2023-06-12T09:13:11.034Z,3.00
2023-06-12T09:14:12.730Z,2.90
2023-06-12T09:15:19.482Z,3.00
2023-06-12T09:16:21.097Z,2.90
2023-06-12T09:17:28.991Z,2.80
2023-06-12T09:18:31.027Z,3.00
2023-06-12T09:19:43.574Z,3.10
2023-06-12T09:20:45.967Z,2.90
2023-06-12T09:21:47.729Z,2.80
2023-06-12T09:22:52.364Z,2.50
2023-06-12T09:23:56.023Z,2.90
2023-06-12T09:24:57.727Z,2.90
2023-06-12T09:26:14.826Z,2.90
2023-06-12T09:27:22.042Z,3.40
2023-06-12T09:28:26.388Z,2.90
2023-06-12T09:29:32.415Z,2.90
2023-06-12T09:30:38.953Z,2.80
2023-06-12T09:31:41.100Z,3.00
2023-06-12T09:32:43.637Z,3.40
2023-06-12T09:33:45.444Z,3.10
2023-06-12T09:34:48.873Z,2.80
2023-06-12T09:35:51.735Z,2.50
2023-06-12T09:36:54.460Z,3.20
2023-06-12T09:37:59.308Z,2.60
2023-06-12T09:39:00.870Z,3.10
2023-06-12T09:40:13.993Z,2.40
2023-06-12T09:41:21.258Z,2.90
2023-06-12T09:42:22.860Z,2.60
2023-06-12T09:43:28.377Z,3.10
2023-06-12T09:44:31.230Z,2.70
2023-06-12T09:45:32.778Z,2.70
2023-06-12T09:46:34.609Z,3.10
2023-06-12T09:47:43.521Z,2.80
2023-06-12T09:48:45.553Z,2.70
2023-06-12T09:49:47.036Z,2.60
2023-06-12T09:50:48.597Z,2.90
2023-06-12T09:51:51.573Z,2.70
2023-06-12T09:52:59.105Z,3.20
2023-06-12T09:54:01.631Z,2.80
2023-06-12T09:55:06.274Z,2.80
2023-06-12T09:56:09.414Z,2.90
2023-06-12T09:57:13.017Z,3.10
2023-06-12T09:58:15.291Z,3.30
2023-06-12T09:59:18.703Z,3.60
2023-06-12T10:00:21.360Z,2.90
2023-06-12T10:01:26.464Z,2.90
2023-06-12T10:02:28.205Z,3.10
2023-06-12T10:03:31.010Z,3.30
2023-06-12T10:04:41.000Z,2.90
2023-06-12T10:05:47.868Z,2.90
2023-06-12T10:06:50.863Z,2.70
2023-06-12T10:07:54.762Z,3.00
2023-06-12T10:08:57.124Z,2.80
2023-06-12T10:10:02.057Z,2.90
2023-06-12T10:11:04.525Z,2.80
2023-06-12T10:12:07.378Z,3.10
2023-06-12T10:13:09.790Z,2.50
2023-06-12T10:14:12.943Z,3.00
2023-06-12T10:15:16.041Z,2.90
2023-06-12T10:16:18.801Z,2.70
2023-06-12T10:17:22.593Z,2.90
2023-06-12T10:18:25.678Z,3.10
2023-06-12T10:19:27.529Z,3.10
2023-06-12T10:20:30.661Z,3.00
2023-06-12T10:21:32.436Z,2.40
2023-06-12T10:22:33.999Z,2.90
2023-06-12T10:23:37.273Z,2.70
2023-06-12T10:24:40.133Z,2.80
2023-06-12T10:25:42.007Z,2.90
2023-06-12T10:26:44.317Z,3.10
2023-06-12T10:27:46.632Z,3.20
2023-06-12T10:28:48.280Z,2.70
2023-06-12T10:30:00.850Z,3.00
2023-06-12T10:31:29.742Z,2.80
2023-06-12T10:32:32.908Z,2.90
2023-06-12T10:33:37.418Z,3.10
2023-06-12T10:34:45.482Z,3.00
2023-06-12T10:35:48.889Z,2.70
2023-06-12T10:36:50.630Z,2.80
2023-06-12T10:37:52.380Z,2.90
2023-06-12T10:39:07.375Z,3.10
2023-06-12T10:40:10.895Z,3.10
2023-06-12T10:41:12.727Z,2.80
2023-06-12T10:42:14.254Z,2.80
2023-06-12T10:43:21.322Z,3.20
2023-06-12T10:44:39.564Z,3.10
2023-06-12T10:45:56.029Z,2.70
2023-06-12T10:47:01.773Z,2.40
2023-06-12T10:48:06.106Z,3.00
2023-06-12T10:49:08.181Z,2.40
2023-06-12T10:50:09.845Z,2.50
2023-06-12T10:51:11.968Z,2.50
2023-06-12T10:52:20.681Z,3.20
2023-06-12T10:53:29.648Z,2.60
2023-06-12T10:54:31.080Z,2.90
2023-06-12T10:55:39.165Z,3.80
2023-06-12T10:56:58.877Z,3.30
2023-06-12T10:58:06.004Z,2.70
2023-06-12T10:59:14.602Z,2.90
2023-06-12T11:00:18.545Z,3.00
2023-06-12T11:01:20.805Z,2.60
2023-06-12T11:02:22.493Z,2.50
2023-06-12T11:03:29.718Z,2.30
2023-06-12T11:04:38.443Z,2.70
2023-06-12T11:05:52.296Z,2.90
2023-06-12T11:06:54.666Z,2.60
2023-06-12T11:08:04.890Z,3.10
2023-06-12T11:09:12.277Z,2.70
2023-06-12T11:10:14.466Z,2.60
2023-06-12T11:11:17.148Z,2.40
2023-06-12T11:12:18.714Z,2.50
2023-06-12T11:13:27.239Z,2.40
2023-06-12T11:14:32.356Z,2.50
2023-06-12T11:15:45.169Z,2.60
2023-06-12T11:16:46.653Z,2.30
2023-06-12T11:17:49.162Z,2.40
2023-06-12T11:19:09.074Z,2.40
2023-06-12T11:20:11.450Z,1.80
2023-06-12T11:21:13.747Z,2.30
2023-06-12T11:22:15.238Z,2.30
2023-06-12T11:23:16.990Z,2.20
2023-06-12T11:24:18.722Z,2.40
2023-06-12T11:25:20.369Z,2.30
2023-06-12T11:26:22.003Z,2.30
2023-06-12T11:27:23.998Z,2.50
2023-06-12T11:28:26.994Z,2.10
2023-06-12T11:30:43.452Z,2.40
2023-06-12T11:32:01.735Z,2.50
2023-06-12T11:33:17.811Z,2.50
2023-06-12T11:34:19.429Z,2.30
2023-06-12T11:35:20.958Z,2.20
2023-06-12T11:36:22.540Z,2.30
2023-06-12T11:37:26.634Z,2.00
2023-06-12T11:40:37.284Z,2.20
2023-06-12T11:41:38.779Z,2.10
2023-06-12T11:42:41.857Z,2.30
2023-06-12T11:43:44.113Z,2.10
2023-06-12T11:44:50.361Z,2.00
2023-06-12T11:45:53.056Z,2.00
2023-06-12T11:49:25.685Z,2.30
2023-06-12T11:50:27.919Z,2.20
2023-06-12T11:51:30.816Z,2.00
2023-06-12T11:52:34.520Z,1.90
2023-06-12T11:53:36.196Z,2.20
2023-06-12T11:57:17.120Z,2.30
2023-06-12T11:58:21.634Z,2.10
2023-06-12T11:59:34.681Z,2.20
2023-06-12T12:00:37.701Z,2.00
2023-06-12T12:01:41.663Z,2.10
2023-06-12T12:02:46.872Z,2.00
2023-06-12T12:03:49.166Z,1.80
2023-06-12T12:04:51.108Z,1.90
2023-06-12T12:05:52.740Z,2.30
2023-06-12T12:06:55.465Z,2.20
2023-06-12T12:08:00.318Z,2.10
2023-06-12T12:09:02.979Z,2.10
2023-06-12T12:10:09.743Z,2.00
2023-06-12T12:11:21.255Z,2.00
2023-06-12T12:12:23.300Z,2.30
2023-06-12T12:13:24.798Z,2.10
2023-06-12T12:14:27.453Z,2.30
2023-06-12T12:15:31.585Z,2.20
2023-06-12T12:16:40.630Z,2.00
2023-06-12T12:17:43.663Z,2.50
2023-06-12T12:18:45.163Z,2.10
2023-06-12T12:19:48.059Z,2.10
2023-06-12T12:20:50.344Z,1.90
2023-06-12T12:21:52.577Z,2.10
2023-06-12T12:22:59.249Z,2.60
2023-06-12T12:24:00.983Z,2.60
2023-06-12T12:25:03.749Z,2.80
2023-06-12T12:26:08.803Z,3.30
2023-06-12T12:27:13.517Z,3.40
2023-06-12T12:28:15.487Z,3.10
2023-06-12T12:29:23.104Z,3.40
2023-06-12T12:30:24.841Z,3.40
2023-06-12T12:31:26.481Z,3.70
2023-06-12T12:32:27.962Z,3.70
2023-06-12T12:33:29.708Z,3.70
2023-06-12T12:34:31.172Z,3.70
2023-06-12T12:35:32.749Z,3.40
2023-06-12T12:36:34.241Z,3.80
2023-06-12T12:37:35.890Z,3.40
2023-06-12T12:38:37.373Z,3.40
2023-06-12T12:39:38.847Z,3.70
2023-06-12T12:40:40.502Z,3.40
2023-06-12T12:41:41.999Z,4.00
2023-06-12T12:42:48.303Z,3.60
2023-06-12T12:43:49.970Z,3.20
2023-06-12T12:44:51.931Z,3.10
2023-06-12T12:45:53.594Z,3.40
2023-06-12T12:46:55.144Z,3.20
2023-06-12T12:47:56.964Z,3.40
2023-06-12T12:48:58.569Z,3.00
2023-06-12T12:50:05.860Z,2.80
2023-06-12T12:51:11.089Z,3.30
2023-06-12T12:52:28.766Z,3.30
2023-06-12T12:53:35.239Z,3.20
2023-06-12T12:54:36.862Z,2.80
2023-06-12T12:55:38.338Z,2.30
2023-06-12T12:56:40.117Z,2.90
2023-06-12T12:57:44.318Z,2.60
2023-06-12T12:58:45.842Z,2.60
2023-06-12T12:59:48.000Z,2.60
2023-06-12T13:00:51.353Z,2.50
2023-06-12T13:01:53.184Z,2.40
2023-06-12T13:02:54.973Z,2.70
2023-06-12T13:03:56.747Z,2.40
2023-06-12T13:04:58.607Z,2.40
2023-06-12T13:06:00.624Z,2.30
2023-06-12T13:07:02.357Z,2.30
2023-06-12T13:08:04.110Z,2.20
2023-06-12T13:09:05.632Z,2.60
2023-06-12T13:10:09.285Z,2.50
2023-06-12T13:11:10.773Z,2.70
2023-06-12T13:12:12.445Z,2.50
2023-06-12T13:13:15.734Z,2.40
2023-06-12T13:14:18.406Z,2.80
2023-06-12T13:15:20.091Z,2.50
2023-06-12T13:16:21.584Z,2.90
2023-06-12T13:17:23.190Z,2.70
2023-06-12T13:18:24.698Z,2.60
2023-06-12T13:19:28.550Z,2.10
2023-06-12T13:20:30.057Z,2.40
2023-06-12T13:21:31.624Z,2.70
2023-06-12T13:22:33.675Z,2.30
2023-06-12T13:23:35.541Z,2.60
2023-06-12T13:24:37.548Z,2.20
2023-06-12T13:25:39.201Z,2.20
2023-06-12T13:26:40.785Z,2.30
2023-06-12T13:27:42.260Z,2.60
2023-06-12T13:28:43.730Z,2.20
2023-06-12T13:29:45.323Z,2.30
2023-06-12T13:30:46.889Z,2.20
2023-06-12T13:31:49.842Z,2.30
2023-06-12T13:32:51.505Z,2.10
2023-06-12T13:33:52.989Z,2.30
2023-06-12T13:34:55.062Z,2.10
2023-06-12T13:35:56.717Z,2.20
2023-06-12T13:36:58.297Z,2.50
2023-06-12T13:38:00.063Z,2.30
2023-06-12T13:39:01.561Z,2.10
2023-06-12T13:40:04.991Z,2.40
2023-06-12T13:41:06.480Z,2.50
2023-06-12T13:42:08.120Z,2.40
2023-06-12T13:43:09.857Z,2.20
2023-06-12T13:44:11.381Z,2.20
2023-06-12T13:45:13.363Z,2.10
2023-06-12T13:46:15.049Z,2.50
2023-06-12T13:47:16.605Z,1.90
2023-06-12T13:48:18.134Z,2.90
2023-06-12T13:49:19.722Z,2.30
2023-06-12T13:50:21.437Z,2.30
2023-06-12T13:51:23.206Z,2.20
2023-06-12T13:52:24.857Z,2.00
2023-06-12T13:53:28.327Z,1.90
2023-06-12T13:54:29.807Z,1.90
2023-06-12T13:55:31.729Z,2.20
2023-06-12T13:56:33.805Z,2.20
2023-06-12T13:57:39.253Z,2.40
2023-06-12T13:58:40.908Z,2.40
2023-06-12T13:59:42.490Z,2.70
2023-06-12T14:00:43.978Z,2.30
2023-06-12T14:01:47.231Z,2.30
2023-06-12T14:02:48.874Z,2.10
2023-06-12T14:03:52.874Z,2.30
2023-06-12T14:04:54.516Z,2.70
2023-06-12T14:05:56.098Z,2.90
2023-06-12T14:06:58.724Z,2.20
2023-06-12T14:08:00.864Z,2.40
2023-06-12T14:09:02.592Z,2.60
2023-06-12T14:10:04.423Z,2.50
2023-06-12T14:11:06.958Z,2.20
2023-06-12T14:12:08.667Z,2.40
2023-06-12T14:13:11.789Z,2.30
2023-06-12T14:14:13.268Z,2.40
2023-06-12T14:15:14.855Z,2.30
2023-06-12T14:16:17.594Z,2.40